Skip Navigation

Christman Field Latest Observations

Switch to english unitsOther observation timesWeekly graphs

Date Time
MST
Temp
°C
RH
%
DewPt
°C
Wind
m/s
Dir
°
Gust
m/s
Dir
°
Press
hPa
Solar
W/m^2
Prec
mm
2018-01-21 18:10 -4.0 57.9 -11.1 8.6 10.6 839.75 0.0 0.00
2018-01-21 18:05 -4.0 56.5 -11.4 8.6 11.1 839.75 0.0 0.00
2018-01-21 18:00 -4.0 55.6 -11.5 8.2 11.1 839.72 0.0 0.00
2018-01-21 17:55 -4.0 57.1 -11.2 7.5 9.6 839.72 0.0 0.00
2018-01-21 17:50 -3.9 57.0 -11.2 7.0 8.3 839.66 0.0 0.00
2018-01-21 17:45 -3.8 56.7 -11.2 8.1 9.7 839.60 0.0 0.00
2018-01-21 17:40 -3.9 56.3 -11.3 8.0 9.4 839.58 0.0 0.00
2018-01-21 17:35 -3.9 57.5 -11.0 8.0 10.6 839.54 0.1 0.00
2018-01-21 17:30 -3.7 57.4 -10.9 8.3 10.2 839.50 0.2 0.00
2018-01-21 17:25 -3.7 57.2 -11.0 9.7 12.4 839.55 0.3 0.00
2018-01-21 17:20 -3.8 58.4 -10.8 7.9 10.0 839.54 0.7 0.00
2018-01-21 17:15 -3.7 60.3 -10.3 8.5 10.7 839.48 1.3 0.00
2018-01-21 17:10 -3.6 58.3 -10.6 8.2 9.6 839.47 1.9 0.00
2018-01-21 17:05 -3.6 61.9 -9.9 7.8 10.3 839.47 2.6 0.00
2018-01-21 17:00 -3.7 60.6 -10.2 7.5 9.3 839.47 3.2 0.00
2018-01-21 16:55 -3.7 62.5 -9.9 7.9 9.6 839.47 4.1 0.00
2018-01-21 16:50 -3.7 62.7 -9.8 8.3 11.1 839.46 5.4 0.00
2018-01-21 16:45 -3.9 65.1 -9.5 8.4 9.8 839.45 6.7 0.00
2018-01-21 16:40 -3.8 65.6 -9.3 8.9 11.2 839.45 8.2 0.00
2018-01-21 16:35 -3.8 66.7 -9.1 8.2 11.2 839.39 10.4 0.00
2018-01-21 16:30 -3.7 65.8 -9.2 8.0 9.9 839.29 14.5 0.00
2018-01-21 16:25 -3.8 66.3 -9.2 7.9 10.4 839.27 20.6 0.00
2018-01-21 16:20 -4.0 68.2 -9.0 7.9 10.9 839.24 29.1 0.00
2018-01-21 16:15 -4.0 71.4 -8.4 7.4 9.4 839.14 38.7 0.00
2018-01-21 16:10 -3.9 69.9 -8.6 7.5 9.3 839.07 44.8 0.00
2018-01-21 16:05 -3.8 70.5 -8.4 6.4 8.3 838.97 49.7 0.00
2018-01-21 16:00 -3.7 73.1 -7.8 6.4 8.5 838.95 52.3 0.00
2018-01-21 15:55 -3.7 64.8 -9.3 8.4 10.4 838.94 52.7 0.00
2018-01-21 15:50 -3.8 66.7 -9.1 7.5 10.2 838.84 55.8 0.00
2018-01-21 15:45 -4.2 73.4 -8.2 6.3 8.8 838.72 62.0 0.00